Time;durP1;ratioP1;P1;durP2;ratioP2;P2;SDS_P1;SDS_P2;PMS_P1;PMS_P2;Temp;Humidity;BMP_temperature;BMP_pressure;BME280_temperature;BME280_humidity;BME280_pressure;Samples;Min_cycle;Max_cycle;Signal;HPM_P1;HPM_P2
2023/09/30 00:03:19;;;;;;;17.35;4.72;;;;;;;10.47;100.00;102284.00;10477249;28;20048;-72
2023/09/30 00:08:19;;;;;;;16.55;4.47;;;;;;;10.46;100.00;102294.19;10485132;28;20110;-72
2023/09/30 00:13:20;;;;;;;20.63;4.20;;;;;;;10.45;100.00;102288.91;10469812;28;20419;-71
2023/09/30 00:18:20;;;;;;;17.08;4.57;;;;;;;10.42;100.00;102295.69;10480905;28;20041;-72
2023/09/30 00:23:21;;;;;;;15.77;3.60;;;;;;;10.39;100.00;102298.03;10477609;28;20041;-72
2023/09/30 00:28:21;;;;;;;11.02;3.95;;;;;;;10.22;100.00;102286.63;10481516;28;20037;-72
2023/09/30 00:33:22;;;;;;;14.93;4.15;;;;;;;10.29;100.00;102303.94;10478489;28;20063;-72
2023/09/30 00:38:24;;;;;;;12.50;3.67;;;;;;;10.26;100.00;102305.25;10479999;28;20049;-72
2023/09/30 00:43:25;;;;;;;19.23;4.15;;;;;;;10.30;100.00;102284.50;10479625;28;20033;-72
2023/09/30 00:48:26;;;;;;;17.42;3.72;;;;;;;10.35;100.00;102283.84;10476536;28;20040;-71
2023/09/30 00:53:27;;;;;;;12.88;4.40;;;;;;;10.33;100.00;102283.22;10479131;28;20052;-73
2023/09/30 00:58:28;;;;;;;17.05;4.80;;;;;;;10.29;100.00;102282.84;10458298;28;20056;-66
2023/09/30 01:03:29;;;;;;;21.15;4.78;;;;;;;10.20;100.00;102273.09;10482467;28;20045;-66
2023/09/30 01:08:29;;;;;;;15.98;4.18;;;;;;;10.00;100.00;102267.63;10476115;28;20072;-72
2023/09/30 01:13:34;;;;;;;11.32;4.13;;;;;;;10.10;100.00;102290.03;10468165;28;20097;-72
2023/09/30 01:18:35;;;;;;;12.93;4.13;;;;;;;10.09;100.00;102301.28;10465957;28;20139;-72
2023/09/30 01:23:36;;;;;;;15.73;4.57;;;;;;;10.14;100.00;102317.97;10482388;28;20089;-73
2023/09/30 01:28:36;;;;;;;22.63;4.82;;;;;;;10.09;100.00;102301.28;10475452;28;20033;-72
2023/09/30 01:33:37;;;;;;;12.13;4.80;;;;;;;10.27;100.00;102328.09;10479475;28;20615;-72
2023/09/30 01:38:37;;;;;;;23.35;5.50;;;;;;;10.32;100.00;102325.59;10470141;28;20417;-72
2023/09/30 01:43:38;;;;;;;18.20;5.50;;;;;;;10.34;100.00;102317.13;10457532;28;20044;-72
2023/09/30 01:48:38;;;;;;;21.35;5.82;;;;;;;10.37;100.00;102316.69;10475346;28;20041;-72
2023/09/30 01:53:39;;;;;;;15.45;4.25;;;;;;;10.43;100.00;102322.16;10477575;28;20041;-72
2023/09/30 01:58:40;;;;;;;15.73;4.22;;;;;;;10.44;100.00;102312.84;10476590;28;20514;-72
2023/09/30 02:03:41;;;;;;;12.98;4.45;;;;;;;10.39;100.00;102318.13;10477788;28;20041;-72
2023/09/30 02:08:44;;;;;;;14.85;3.70;;;;;;;10.34;100.00;102323.47;10475173;28;20037;-69
2023/09/30 02:13:45;;;;;;;24.58;4.93;;;;;;;10.28;100.00;102329.81;10477613;28;20051;-72
2023/09/30 02:18:45;;;;;;;20.00;4.32;;;;;;;10.24;100.00;102318.38;10475203;28;20037;-72
2023/09/30 02:23:47;;;;;;;15.80;5.30;;;;;;;10.21;100.00;102318.81;10461392;28;20045;-73
2023/09/30 02:28:48;;;;;;;12.27;4.85;;;;;;;10.19;100.00;102329.22;10477473;28;20044;-73
2023/09/30 02:33:48;;;;;;;17.20;4.10;;;;;;;10.20;100.00;102333.63;10473408;28;20047;-73
2023/09/30 02:38:49;;;;;;;13.38;4.20;;;;;;;10.14;100.00;102322.66;10480761;28;20090;-73
2023/09/30 02:43:49;;;;;;;17.00;5.60;;;;;;;10.25;100.00;102333.84;10449816;28;20394;-72
2023/09/30 02:48:50;;;;;;;16.70;3.90;;;;;;;10.30;100.00;102325.81;10476228;28;20047;-73
2023/09/30 02:53:50;;;;;;;15.30;5.00;;;;;;;10.30;100.00;102328.56;10439787;28;20056;-72
2023/09/30 02:58:51;;;;;;;20.08;5.35;;;;;;;10.30;100.00;102334.06;10476296;28;20044;-73
2023/09/30 03:03:52;;;;;;;13.88;4.45;;;;;;;10.28;100.00;102340.81;10475691;28;20037;-72
2023/09/30 03:08:52;;;;;;;9.57;3.97;;;;;;;10.28;100.00;102336.16;10476038;28;20480;-72
2023/09/30 03:13:55;;;;;;;15.63;4.85;;;;;;;10.29;100.00;102343.41;10479124;28;20045;-72
2023/09/30 03:18:56;;;;;;;16.52;5.13;;;;;;;10.34;100.00;102328.13;10484105;28;20037;-72
2023/09/30 03:23:56;;;;;;;16.58;4.80;;;;;;;10.37;100.00;102327.69;10481362;28;20052;-73
2023/09/30 03:28:57;;;;;;;14.85;5.88;;;;;;;10.38;100.00;102321.13;10485034;28;20380;-72
2023/09/30 03:33:58;;;;;;;15.45;5.43;;;;;;;10.33;100.00;102332.78;10479014;28;20036;-73
2023/09/30 03:39:05;;;;;;;24.88;4.75;;;;;;;10.27;100.00;102333.59;10479476;28;20044;-73
2023/09/30 03:44:06;;;;;;;15.65;5.30;;;;;;;10.23;100.00;102340.59;10485961;28;20055;-73
2023/09/30 03:49:08;;;;;;;14.43;5.35;;;;;;;10.25;100.00;102330.22;10478077;28;20045;-73
2023/09/30 03:54:08;;;;;;;14.90;5.78;;;;;;;10.27;100.00;102333.59;10485868;28;20029;-72
2023/09/30 03:59:09;;;;;;;18.95;5.45;;;;;;;10.29;100.00;102329.63;10476468;28;20044;-73
2023/09/30 04:04:09;;;;;;;13.60;4.63;;;;;;;10.33;100.00;102331.94;10459891;28;20404;-72
2023/09/30 04:09:10;;;;;;;14.48;5.18;;;;;;;10.27;100.00;102333.59;10477882;28;20399;-72
2023/09/30 04:14:10;;;;;;;12.60;5.10;;;;;;;10.26;100.00;102329.19;10460974;28;20041;-72
2023/09/30 04:19:11;;;;;;;20.20;5.90;;;;;;;10.27;100.00;102334.47;10481586;28;20067;-73
2023/09/30 04:24:11;;;;;;;13.98;5.35;;;;;;;10.20;100.00;102316.28;10479289;28;20048;-71
2023/09/30 04:29:14;;;;;;;16.05;5.60;;;;;;;10.23;100.00;102338.72;10479664;28;20128;-72
2023/09/30 04:34:14;;;;;;;19.08;6.45;;;;;;;10.24;100.00;102339.56;10480980;28;20045;-73
2023/09/30 04:39:15;;;;;;;16.73;5.55;;;;;;;10.22;100.00;102339.75;10455034;28;20442;-71
2023/09/30 04:44:16;;;;;;;12.88;5.63;;;;;;;10.20;100.00;102344.66;10479529;28;20047;-72
2023/09/30 04:49:17;;;;;;;16.13;5.38;;;;;;;10.16;100.00;102348.06;10476087;28;20078;-72
2023/09/30 04:54:17;;;;;;;17.73;6.00;;;;;;;10.11;100.00;102345.94;10482887;28;20067;-72
2023/09/30 04:59:18;;;;;;;21.85;6.93;;;;;;;10.11;100.00;102343.19;10476132;28;20044;-72
2023/09/30 05:04:18;;;;;;;20.67;6.07;;;;;;;10.12;100.00;102364.13;10478563;28;20041;-72
2023/09/30 05:09:19;;;;;;;16.90;6.60;;;;;;;10.10;100.00;102377.25;10481664;28;20047;-71
2023/09/30 05:14:20;;;;;;;24.80;7.38;;;;;;;10.14;100.00;102374.94;10478805;28;20040;-72
2023/09/30 05:19:21;;;;;;;28.58;7.22;;;;;;;10.18;100.00;102379.78;10474099;28;20398;-73
2023/09/30 05:24:22;;;;;;;21.75;6.63;;;;;;;10.19;100.00;102378.75;10479143;28;20036;-73
2023/09/30 05:29:22;;;;;;;19.15;6.90;;;;;;;9.89;100.00;102337.94;10478007;28;20641;-73
2023/09/30 05:34:24;;;;;;;15.15;6.07;;;;;;;10.08;100.00;102391.22;10476616;28;20045;-72
2023/09/30 05:39:25;;;;;;;17.55;6.88;;;;;;;10.02;100.00;102405.00;10479543;28;20143;-73
2023/09/30 05:44:27;;;;;;;19.88;7.80;;;;;;;9.85;100.00;102374.34;10475252;28;20088;-72
2023/09/30 05:49:27;;;;;;;18.73;7.07;;;;;;;9.99;100.00;102397.19;10478341;28;20040;-73
2023/09/30 05:54:28;;;;;;;22.17;7.45;;;;;;;10.03;100.00;102398.47;10475213;28;20040;-73
2023/09/30 05:59:30;;;;;;;22.02;6.93;;;;;;;10.05;100.00;102408.19;10477808;28;20056;-69
2023/09/30 06:04:32;;;;;;;17.13;7.57;;;;;;;10.09;100.00;102414.13;10464309;28;20041;-69
2023/09/30 06:09:33;;;;;;;17.45;6.53;;;;;;;10.12;100.00;102413.66;10464301;28;20045;-72
2023/09/30 06:14:33;;;;;;;23.25;7.20;;;;;;;10.16;100.00;102414.94;10477574;28;20040;-70
2023/09/30 06:19:34;;;;;;;17.98;7.28;;;;;;;10.16;100.00;102425.94;10475403;28;20049;-72
2023/09/30 06:24:35;;;;;;;23.20;7.88;;;;;;;10.20;100.00;102420.88;10480550;28;20033;-72
2023/09/30 06:29:35;;;;;;;22.63;8.15;;;;;;;10.25;100.00;102435.69;10473804;28;20094;-72
2023/09/30 06:34:36;;;;;;;19.45;6.55;;;;;;;9.86;100.00;102352.13;10475860;28;20037;-72
2023/09/30 06:39:36;;;;;;;23.73;7.50;;;;;;;10.41;100.00;102433.56;10473653;28;20037;-73
2023/09/30 06:44:37;;;;;;;23.92;7.07;;;;;;;10.56;100.00;102441.56;10466901;28;20037;-72
2023/09/30 06:49:37;;;;;;;17.63;8.18;;;;;;;10.72;100.00;102446.59;10485314;28;20045;-73
2023/09/30 06:54:38;;;;;;;20.83;8.32;;;;;;;10.83;100.00;102436.81;10481914;28;20123;-72
2023/09/30 06:59:39;;;;;;;23.67;9.32;;;;;;;11.01;100.00;102453.50;10485359;28;20037;-72
2023/09/30 07:04:39;;;;;;;16.05;7.68;;;;;;;11.15;100.00;102461.72;10480985;28;20041;-72
2023/09/30 07:09:40;;;;;;;23.13;9.85;;;;;;;11.25;100.00;102462.94;10483286;28;20036;-72
2023/09/30 07:14:40;;;;;;;25.33;9.40;;;;;;;11.28;100.00;102451.44;10488172;28;20068;-73
2023/09/30 07:19:41;;;;;;;20.02;8.23;;;;;;;11.50;100.00;102475.94;10481940;28;20040;-72
2023/09/30 07:24:41;;;;;;;22.55;9.82;;;;;;;11.63;100.00;102478.59;10484177;28;20119;-71
2023/09/30 07:29:42;;;;;;;21.23;9.00;;;;;;;11.69;100.00;102465.84;10480470;28;20124;-72
2023/09/30 07:34:42;;;;;;;23.02;8.60;;;;;;;11.89;100.00;102479.53;10481199;28;20041;-72
2023/09/30 07:39:43;;;;;;;22.98;9.30;;;;;;;12.09;100.00;102487.63;10480196;28;20044;-72
2023/09/30 07:44:43;;;;;;;21.83;9.45;;;;;;;12.17;100.00;102489.28;10483828;28;20043;-71
2023/09/30 07:49:44;;;;;;;20.23;9.55;;;;;;;12.33;100.00;102502.53;10476259;28;20040;-71
2023/09/30 07:54:44;;;;;;;27.73;9.77;;;;;;;12.48;100.00;102504.94;10485373;28;20048;-72
2023/09/30 07:59:45;;;;;;;22.15;10.70;;;;;;;12.17;100.00;102434.91;10479037;28;20037;-71
2023/09/30 08:04:45;;;;;;;24.60;8.88;;;;;;;12.79;100.00;102511.41;10470906;28;20037;-72
2023/09/30 08:09:47;;;;;;;17.10;8.05;;;;;;;12.93;100.00;102518.50;10460124;28;20477;-72
2023/09/30 08:14:48;;;;;;;17.15;9.00;;;;;;;13.11;100.00;102515.72;10452355;28;20044;-72
2023/09/30 08:19:49;;;;;;;18.77;8.32;;;;;;;13.28;100.00;102521.47;10449640;28;20041;-71
2023/09/30 08:24:49;;;;;;;17.08;7.80;;;;;;;13.47;100.00;102518.72;10447485;28;20036;-71
2023/09/30 08:29:50;;;;;;;14.98;7.43;;;;;;;13.65;100.00;102515.91;10455836;28;20041;-71
2023/09/30 08:34:50;;;;;;;17.10;7.88;;;;;;;13.83;100.00;102517.78;10452552;28;20112;-71
2023/09/30 08:39:51;;;;;;;17.08;7.78;;;;;;;14.07;100.00;102515.88;10446521;28;20037;-71
2023/09/30 08:44:54;;;;;;;14.40;6.15;;;;;;;14.20;100.00;102512.06;10445554;28;20049;-72
2023/09/30 08:49:57;;;;;;;10.27;5.30;;;;;;;14.45;100.00;102519.31;10461351;28;20412;-71
2023/09/30 08:54:58;;;;;;;10.82;5.82;;;;;;;14.68;100.00;102518.50;10480008;28;20051;-71
2023/09/30 08:59:58;;;;;;;11.85;4.10;;;;;;;14.86;100.00;102509.19;10481181;28;20056;-72
2023/09/30 09:04:59;;;;;;;10.98;4.30;;;;;;;15.25;100.00;102537.22;10456013;28;20052;-71
2023/09/30 09:10:04;;;;;;;9.80;4.05;;;;;;;15.54;100.00;102538.09;10481563;28;20135;-72
2023/09/30 09:15:09;;;;;;;9.55;4.18;;;;;;;15.83;100.00;102527.84;10460589;28;20090;-72
2023/09/30 09:20:20;;;;;;;10.35;3.58;;;;;;;16.14;100.00;102536.72;10445492;28;20045;-73
2023/09/30 09:25:22;;;;;;;9.93;3.20;;;;;;;16.37;100.00;102529.31;10462833;28;20043;-73
2023/09/30 09:30:24;;;;;;;10.02;3.67;;;;;;;16.44;100.00;102516.13;10472805;28;20155;-74
2023/09/30 09:35:27;;;;;;;10.00;2.95;;;;;;;16.71;100.00;102530.16;10453734;28;20044;-74
2023/09/30 09:40:29;;;;;;;7.45;2.22;;;;;;;16.91;100.00;102527.69;10472990;28;20055;-75
2023/09/30 09:45:32;;;;;;;13.18;2.38;;;;;;;17.09;100.00;102532.09;10477873;28;20036;-75
2023/09/30 09:50:33;;;;;;;7.60;2.47;;;;;;;17.35;100.00;102561.09;10473637;28;20041;-75
2023/09/30 09:55:33;;;;;;;9.43;2.03;;;;;;;17.50;100.00;102527.03;10477510;28;20044;-75
2023/09/30 10:00:33;;;;;;;11.68;2.30;;;;;;;17.55;100.00;102515.97;10474993;28;20508;-75
2023/09/30 10:05:34;;;;;;;8.82;2.10;;;;;;;17.58;100.00;102531.31;10458432;28;20538;-74
2023/09/30 10:10:35;;;;;;;10.32;1.73;;;;;;;17.69;100.00;102540.59;10456833;28;20044;-75
2023/09/30 10:15:37;;;;;;;10.13;1.60;;;;;;;17.71;100.00;102543.97;10458998;28;20055;-75
2023/09/30 10:20:41;;;;;;;6.05;1.33;;;;;;;17.42;100.00;102548.94;10480082;28;20052;-74
2023/09/30 10:25:46;;;;;;;15.35;2.00;;;;;;;17.06;100.00;102538.19;10468901;28;20057;-73
2023/09/30 10:31:12;;;;;;;8.05;1.40;;;;;;;17.46;100.00;102552.88;10474530;28;20084;-75
2023/09/30 10:36:13;;;;;;;6.35;1.75;;;;;;;17.88;100.00;102539.19;10466987;28;20112;-75
2023/09/30 10:41:34;;;;;;;11.32;1.45;;;;;;;17.87;100.00;102543.06;10464133;28;20039;-76
2023/09/30 10:46:35;;;;;;;6.15;1.70;;;;;;;17.68;100.00;102547.28;10479733;28;20045;-76
2023/09/30 10:51:35;;;;;;;12.57;2.60;;;;;;;17.52;100.00;102549.88;10485594;28;20067;-75
2023/09/30 10:56:36;;;;;;;7.13;1.45;;;;;;;17.86;100.00;102548.88;10447875;28;20037;-75
2023/09/30 11:01:36;;;;;;;8.68;1.30;;;;;;;18.21;100.00;102547.56;10485008;28;20094;-73
2023/09/30 11:06:40;;;;;;;8.32;1.33;;;;;;;18.14;100.00;102542.19;10481253;28;20036;-76
2023/09/30 11:12:00;;;;;;;8.90;1.38;;;;;;;18.71;100.00;102535.97;10481817;28;20040;-76
2023/09/30 11:17:01;;;;;;;3.50;1.35;;;;;;;18.81;100.00;102517.63;10480612;28;20037;-75
2023/09/30 11:22:02;;;;;;;7.03;1.25;;;;;;;18.40;100.00;102514.53;10485612;28;20690;-74
2023/09/30 11:27:03;;;;;;;9.57;1.70;;;;;;;18.05;100.00;102521.50;10479269;28;20032;-76
2023/09/30 11:32:03;;;;;;;6.95;1.73;;;;;;;18.52;100.00;102520.75;10482450;28;20141;-76
2023/09/30 11:37:05;;;;;;;5.55;1.52;;;;;;;19.18;100.00;102466.44;10478293;28;20033;-75
2023/09/30 11:42:17;;;;;;;7.15;1.45;;;;;;;20.15;100.00;102475.00;10450458;28;20037;-73
2023/09/30 11:47:28;;;;;;;10.43;3.30;;;;;;;20.83;100.00;102460.63;10473884;28;20504;-75
2023/09/30 11:52:29;;;;;;;5.35;0.90;;;;;;;21.30;100.00;102455.66;10482477;28;20519;-73
2023/09/30 11:57:30;;;;;;;6.93;1.55;;;;;;;21.70;100.00;102439.72;10481139;28;20036;-76
2023/09/30 12:02:31;;;;;;;6.13;1.40;;;;;;;22.47;100.00;102434.28;10482378;28;20041;-75
2023/09/30 12:07:33;;;;;;;2.83;0.70;;;;;;;22.12;100.00;102443.88;10469266;28;20036;-76
2023/09/30 12:12:33;;;;;;;6.15;1.10;;;;;;;20.16;100.00;102348.06;10480299;28;20072;-75
2023/09/30 12:17:34;;;;;;;6.50;0.95;;;;;;;21.58;100.00;102456.06;10481019;28;20094;-75
2023/09/30 12:22:37;;;;;;;4.78;1.10;;;;;;;21.78;100.00;102461.53;10482495;28;20036;-76
2023/09/30 12:27:39;;;;;;;4.57;1.20;;;;;;;20.63;100.00;102475.53;10476407;28;20037;-76
2023/09/30 12:32:40;;;;;;;8.95;1.83;;;;;;;19.72;100.00;102452.06;10478110;28;20067;-75
2023/09/30 12:37:43;;;;;;;7.18;1.40;;;;;;;19.82;100.00;102474.44;10468093;28;20037;-77
2023/09/30 12:42:44;;;;;;;4.70;1.35;;;;;;;19.39;100.00;102465.41;10461568;28;20072;-73
2023/09/30 12:47:47;;;;;;;7.47;1.63;;;;;;;18.86;100.00;102459.06;10484261;28;20048;-70
2023/09/30 12:52:47;;;;;;;7.18;2.08;;;;;;;18.45;100.00;102470.78;10474285;28;20049;-67
2023/09/30 12:57:48;;;;;;;8.10;1.30;;;;;;;18.20;100.00;102485.38;10481147;28;20055;-67
2023/09/30 13:02:49;;;;;;;8.95;1.88;;;;;;;17.83;100.00;102497.31;10465065;28;20067;-67
2023/09/30 13:07:50;;;;;;;7.18;1.30;;;;;;;17.25;100.00;102469.13;10460010;28;20068;-68
2023/09/30 13:12:52;;;;;;;4.60;0.90;;;;;;;17.06;100.00;102467.78;10458774;28;20041;-67
2023/09/30 13:17:52;;;;;;;4.25;1.17;;;;;;;16.83;100.00;102477.22;10469425;28;20043;-68
2023/09/30 13:22:53;;;;;;;5.60;1.20;;;;;;;16.70;100.00;102490.38;10465844;28;20381;-70
2023/09/30 13:27:53;;;;;;;3.80;0.85;;;;;;;16.76;100.00;102480.16;10464036;28;20037;-68
2023/09/30 13:32:54;;;;;;;4.75;1.17;;;;;;;17.08;100.00;102485.91;10464040;28;20040;-82
2023/09/30 13:37:54;;;;;;;9.07;1.80;;;;;;;17.40;100.00;102487.09;10476643;28;20052;-83
2023/09/30 13:42:57;;;;;;;4.40;1.25;;;;;;;17.47;100.00;102476.63;10476186;28;20037;-79
2023/09/30 13:47:57;;;;;;;3.85;1.00;;;;;;;17.82;100.00;102462.19;10480105;28;20040;-81
2023/09/30 13:53:00;;;;;;;5.00;1.25;;;;;;;18.57;100.00;102448.28;10472983;28;20037;-77
2023/09/30 13:58:01;;;;;;;10.45;2.20;;;;;;;19.05;100.00;102412.81;10479020;28;20036;-79
2023/09/30 14:03:02;;;;;;;8.10;1.30;;;;;;;19.72;100.00;102408.22;10477829;28;20529;-83
2023/09/30 14:08:03;;;;;;;4.50;1.58;;;;;;;20.07;100.00;102400.94;10473689;28;20033;-82
2023/09/30 14:13:04;;;;;;;2.40;0.90;;;;;;;20.60;100.00;102416.50;10487352;28;20075;-82
2023/09/30 14:18:04;;;;;;;6.10;1.70;;;;;;;21.09;100.00;102410.94;10456061;28;20163;-85
2023/09/30 14:23:04;;;;;;;5.32;0.90;;;;;;;21.21;100.00;102406.94;10479771;28;20043;-85
2023/09/30 14:28:05;;;;;;;7.28;2.35;;;;;;;21.22;100.00;102419.84;10467891;28;20048;-83
2023/09/30 14:33:06;;;;;;;7.45;1.83;;;;;;;21.35;100.00;102413.59;10475723;28;20036;-81
2023/09/30 14:38:06;;;;;;;7.45;1.10;;;;;;;21.71;100.00;102408.59;10475983;28;20150;-84
2023/09/30 14:43:07;;;;;;;6.93;1.90;;;;;;;21.58;100.00;102395.28;10475242;28;20045;-83
2023/09/30 14:48:09;;;;;;;6.32;1.80;;;;;;;20.90;100.00;102367.97;10457441;28;20550;-82
2023/09/30 14:53:09;;;;;;;7.95;2.35;;;;;;;20.42;100.00;102385.16;10478006;28;20108;-83
2023/09/30 14:58:10;;;;;;;4.57;1.42;;;;;;;20.04;100.00;102400.66;10464005;28;20092;-82
2023/09/30 15:03:10;;;;;;;5.15;1.38;;;;;;;19.49;100.00;102390.00;10471311;28;20032;-81
2023/09/30 15:08:11;;;;;;;5.85;1.30;;;;;;;19.16;100.00;102396.91;10479297;28;20063;-75
2023/09/30 15:13:11;;;;;;;5.15;1.40;;;;;;;18.84;100.00;102399.91;10488471;28;20051;-81
2023/09/30 15:18:12;;;;;;;3.80;1.25;;;;;;;18.62;100.00;102397.25;10479690;28;20059;-82
2023/09/30 15:23:13;;;;;;;5.25;1.55;;;;;;;18.33;100.00;102401.31;10486758;28;20041;-82
2023/09/30 15:28:13;;;;;;;7.47;2.30;;;;;;;18.17;100.00;102409.81;10477932;28;20041;-80
2023/09/30 15:33:14;;;;;;;7.32;2.38;;;;;;;17.95;100.00;102386.53;10482475;28;20048;-82
2023/09/30 15:38:14;;;;;;;6.70;1.33;;;;;;;17.79;100.00;102395.03;10476719;28;20033;-82
2023/09/30 15:43:15;;;;;;;6.97;1.20;;;;;;;17.58;100.00;102397.63;10484669;28;20036;-81
2023/09/30 15:48:16;;;;;;;4.13;1.33;;;;;;;17.46;100.00;102386.66;10481732;28;20037;-82
2023/09/30 15:53:16;;;;;;;6.25;1.02;;;;;;;17.41;100.00;102400.53;10481553;28;20056;-82
2023/09/30 15:58:17;;;;;;;6.90;2.17;;;;;;;17.13;100.00;102382.97;10482085;28;20040;-82
2023/09/30 16:03:17;;;;;;;3.00;1.33;;;;;;;17.04;100.00;102401.25;10476915;28;20036;-80
2023/09/30 16:08:18;;;;;;;4.38;1.27;;;;;;;16.81;100.00;102407.13;10478799;28;20144;-82
2023/09/30 16:13:19;;;;;;;6.70;1.30;;;;;;;16.55;100.00;102392.81;10484426;28;20468;-77
2023/09/30 16:18:19;;;;;;;4.32;1.55;;;;;;;16.31;100.00;102387.50;10477315;28;20048;-77
2023/09/30 16:23:20;;;;;;;36.15;9.93;;;;;;;16.09;100.00;102394.97;10484422;28;20037;-77
2023/09/30 16:28:23;;;;;;;46.95;11.65;;;;;;;15.92;100.00;102398.59;10468488;28;20456;-76
2023/09/30 16:33:25;;;;;;;20.50;6.32;;;;;;;15.77;100.00;102403.88;10468393;28;20049;-76
2023/09/30 16:38:25;;;;;;;5.80;2.20;;;;;;;15.75;100.00;102406.09;10481696;28;20043;-77
2023/09/30 16:43:26;;;;;;;9.40;2.47;;;;;;;15.67;100.00;102415.66;10478682;28;20049;-77
2023/09/30 16:48:26;;;;;;;6.05;1.48;;;;;;;15.62;100.00;102417.47;10481465;28;20047;-77
2023/09/30 16:53:27;;;;;;;6.95;2.63;;;;;;;15.53;100.00;102415.13;10451032;28;20113;-75
2023/09/30 16:58:28;;;;;;;5.80;1.80;;;;;;;15.45;100.00;102412.75;10442275;28;20103;-77
2023/09/30 17:03:28;;;;;;;8.85;2.15;;;;;;;15.37;100.00;102409.53;10441239;28;20427;-75
2023/09/30 17:08:29;;;;;;;6.90;2.53;;;;;;;15.22;100.00;102404.56;10436508;28;20045;-77
2023/09/30 17:13:30;;;;;;;7.25;1.98;;;;;;;15.24;100.00;102416.25;10461175;28;20044;-78
2023/09/30 17:18:30;;;;;;;7.10;2.50;;;;;;;15.18;100.00;102417.22;10477042;28;20051;-77
2023/09/30 17:23:31;;;;;;;9.55;2.42;;;;;;;15.09;100.00;102425.94;10457531;28;20049;-68
2023/09/30 17:28:31;;;;;;;5.93;2.63;;;;;;;15.03;100.00;102415.84;10473761;28;20041;-77
2023/09/30 17:33:32;;;;;;;5.82;2.22;;;;;;;14.96;100.00;102397.66;10479326;28;20037;-77
2023/09/30 17:38:33;;;;;;;10.32;2.08;;;;;;;14.91;100.00;102417.81;10478108;28;20048;-77
2023/09/30 17:43:34;;;;;;;7.38;2.28;;;;;;;14.80;100.00;102405.69;10480436;28;20045;-75
2023/09/30 17:48:35;;;;;;;4.30;2.78;;;;;;;14.79;100.00;102426.16;10475082;28;20521;-77
2023/09/30 17:53:35;;;;;;;5.90;1.70;;;;;;;14.75;100.00;102432.44;10465481;28;20819;-77
2023/09/30 17:58:35;;;;;;;6.30;2.72;;;;;;;14.63;100.00;102416.66;10478196;28;20041;-78
2023/09/30 18:03:36;;;;;;;7.15;2.95;;;;;;;14.71;100.00;102430.13;10478707;28;20075;-78
2023/09/30 18:08:38;;;;;;;12.02;1.88;;;;;;;14.73;100.00;102441.81;10480118;28;20041;-77
2023/09/30 18:13:38;;;;;;;5.53;2.08;;;;;;;14.74;100.00;102451.00;10471882;28;20047;-77
2023/09/30 18:18:40;;;;;;;5.20;2.00;;;;;;;14.70;100.00;102436.78;10477823;28;20041;-77
2023/09/30 18:23:40;;;;;;;5.95;2.15;;;;;;;14.66;100.00;102420.91;10477377;28;20044;-77
2023/09/30 18:28:41;;;;;;;6.78;3.95;;;;;;;14.74;100.00;102434.38;10474628;28;20048;-77
2023/09/30 18:33:42;;;;;;;6.88;2.03;;;;;;;14.69;100.00;102423.16;10463603;28;20045;-75
2023/09/30 18:38:42;;;;;;;10.15;2.67;;;;;;;14.73;100.00;102422.41;10450835;28;20056;-77
2023/09/30 18:43:43;;;;;;;8.85;3.10;;;;;;;14.73;100.00;102414.09;10479574;28;20037;-77
2023/09/30 18:48:44;;;;;;;7.05;2.40;;;;;;;14.71;100.00;102410.72;10461509;28;20028;-77
2023/09/30 18:53:44;;;;;;;8.50;2.53;;;;;;;14.68;100.00;102411.25;10466060;28;20041;-77
2023/09/30 18:58:45;;;;;;;7.90;3.40;;;;;;;14.65;100.00;102402.56;10473658;28;20040;-77
2023/09/30 19:03:45;;;;;;;7.55;2.70;;;;;;;14.60;100.00;102400.53;10459654;28;20052;-77
2023/09/30 19:08:46;;;;;;;7.32;2.58;;;;;;;14.56;100.00;102396.56;10475450;28;20033;-77
2023/09/30 19:13:46;;;;;;;7.68;2.67;;;;;;;14.53;100.00;102411.72;10480980;28;20040;-78
2023/09/30 19:18:47;;;;;;;10.40;3.63;;;;;;;14.53;100.00;102427.50;10464378;28;20058;-78
2023/09/30 19:23:47;;;;;;;6.55;2.75;;;;;;;14.52;100.00;102420.28;10479728;28;20400;-78
2023/09/30 19:28:48;;;;;;;5.40;2.47;;;;;;;14.42;100.00;102415.34;10485591;28;20048;-75
2023/09/30 19:33:52;;;;;;;9.23;2.58;;;;;;;14.47;100.00;102428.47;10483954;28;20104;-78
2023/09/30 19:38:53;;;;;;;9.15;2.78;;;;;;;14.45;100.00;102422.31;10483952;28;20036;-77
2023/09/30 19:43:53;;;;;;;10.07;2.92;;;;;;;14.42;100.00;102425.59;10484893;28;20048;-77
2023/09/30 19:48:54;;;;;;;7.97;3.95;;;;;;;14.40;100.00;102420.28;10482074;28;20048;-78
2023/09/30 19:53:55;;;;;;;7.63;3.85;;;;;;;14.38;100.00;102418.84;10483332;28;20107;-76
2023/09/30 19:58:55;;;;;;;9.90;3.92;;;;;;;14.37;100.00;102417.16;10483703;28;20059;-76
2023/09/30 20:03:58;;;;;;;8.25;3.28;;;;;;;14.30;100.00;102406.19;10482038;28;20043;-76
2023/09/30 20:08:59;;;;;;;10.10;3.00;;;;;;;14.36;100.00;102405.22;10481645;28;20033;-75
2023/09/30 20:14:00;;;;;;;9.15;3.55;;;;;;;14.38;100.00;102396.69;10483810;28;20048;-77
2023/09/30 20:19:01;;;;;;;9.52;3.80;;;;;;;14.38;100.00;102396.69;10487255;28;20043;-78
2023/09/30 20:24:04;;;;;;;9.20;3.63;;;;;;;14.37;100.00;102397.78;10479441;28;20492;-78
2023/09/30 20:29:05;;;;;;;10.85;3.15;;;;;;;14.31;100.00;102397.66;10482433;28;20056;-78
2023/09/30 20:34:06;;;;;;;8.63;3.45;;;;;;;14.29;100.00;102398.97;10468208;28;20041;-72
2023/09/30 20:39:10;;;;;;;6.28;2.72;;;;;;;14.27;100.00;102407.53;10458721;28;20072;-74
2023/09/30 20:44:12;;;;;;;7.43;2.85;;;;;;;14.26;100.00;102400.31;10461008;28;20119;-75
2023/09/30 20:49:13;;;;;;;8.82;3.22;;;;;;;14.28;100.00;102395.38;10483636;28;20053;-75
2023/09/30 20:54:13;;;;;;;8.40;3.33;;;;;;;14.27;100.00;102395.59;10487969;28;20126;-75
2023/09/30 20:59:14;;;;;;;9.23;3.85;;;;;;;14.25;100.00;102387.53;10480279;28;20036;-75
2023/09/30 21:04:15;;;;;;;13.75;3.60;;;;;;;14.23;100.00;102384.16;10481510;28;20480;-75
2023/09/30 21:09:17;;;;;;;8.60;3.67;;;;;;;14.24;100.00;102373.91;10478264;28;20037;-75
2023/09/30 21:14:17;;;;;;;9.15;3.45;;;;;;;14.19;100.00;102393.19;10467957;28;20041;-74
2023/09/30 21:19:18;;;;;;;13.52;5.45;;;;;;;14.16;100.00;102393.66;10472898;28;20038;-75
2023/09/30 21:24:19;;;;;;;10.20;4.80;;;;;;;14.10;100.00;102385.25;10482694;28;20032;-75
2023/09/30 21:29:20;;;;;;;10.35;5.38;;;;;;;14.07;100.00;102379.34;10478095;28;20037;-74
2023/09/30 21:34:20;;;;;;;13.13;4.93;;;;;;;14.03;100.00;102384.53;10474454;28;20044;-75
2023/09/30 21:39:21;;;;;;;10.02;4.70;;;;;;;13.97;100.00;102374.41;10472971;28;20037;-75
2023/09/30 21:44:22;;;;;;;10.75;5.10;;;;;;;13.95;100.00;102375.75;10459559;28;20048;-75
2023/09/30 21:49:22;;;;;;;8.95;4.57;;;;;;;13.92;100.00;102374.31;10470674;28;20052;-69
2023/09/30 21:54:23;;;;;;;11.90;6.20;;;;;;;13.89;100.00;102378.41;10474921;28;21055;-75
2023/09/30 21:59:23;;;;;;;10.73;5.07;;;;;;;13.90;100.00;102373.69;10465951;28;20262;-76
2023/09/30 22:04:24;;;;;;;9.02;4.55;;;;;;;13.90;100.00;102376.47;10467949;28;20440;-74
2023/09/30 22:09:24;;;;;;;9.85;4.13;;;;;;;13.93;100.00;102378.75;10459077;28;20572;-75
2023/09/30 22:14:25;;;;;;;10.77;4.40;;;;;;;13.93;100.00;102357.47;10467676;28;20048;-75
2023/09/30 22:19:25;;;;;;;12.70;4.38;;;;;;;13.94;100.00;102374.91;10472982;28;20065;-76
2023/09/30 22:24:27;;;;;;;14.05;5.57;;;;;;;13.91;100.00;102364.28;10469616;28;20044;-75
2023/09/30 22:29:27;;;;;;;12.02;4.75;;;;;;;13.87;100.00;102358.41;10488886;28;20057;-76
2023/09/30 22:34:28;;;;;;;12.00;5.03;;;;;;;13.83;100.00;102348.91;10482978;28;20045;-74
2023/09/30 22:39:28;;;;;;;12.27;4.97;;;;;;;13.71;100.00;102328.69;10491874;28;20499;-76